sensor_id;sensor_type;location;lat;lon;timestamp;noise_LAeq;noise_LA_min;noise_LA_max;noise_LA01;noise_LA95
43385;Laerm;28988;48.042;7.584;2023-05-29T00:00:26;84.40;-43.56;96.18;;
43385;Laerm;28988;48.042;7.584;2023-05-29T00:02:51;84.38;-57.68;95.51;;
43385;Laerm;28988;48.042;7.584;2023-05-29T00:05:16;84.37;-31.18;95.51;;
43385;Laerm;28988;48.042;7.584;2023-05-29T00:07:42;84.41;-38.42;96.13;;
43385;Laerm;28988;48.042;7.584;2023-05-29T00:10:08;84.40;-57.68;95.68;;
43385;Laerm;28988;48.042;7.584;2023-05-29T00:12:34;84.43;-57.68;95.99;;
43385;Laerm;28988;48.042;7.584;2023-05-29T00:14:59;84.41;-57.68;95.90;;
43385;Laerm;28988;48.042;7.584;2023-05-29T00:17:24;84.42;-28.29;96.16;;
43385;Laerm;28988;48.042;7.584;2023-05-29T00:19:50;84.41;-34.16;95.64;;
43385;Laerm;28988;48.042;7.584;2023-05-29T00:22:15;84.40;-57.68;95.72;;
43385;Laerm;28988;48.042;7.584;2023-05-29T00:24:40;84.41;-39.78;95.89;;
43385;Laerm;28988;48.042;7.584;2023-05-29T00:27:06;84.42;-27.49;95.91;;
43385;Laerm;28988;48.042;7.584;2023-05-29T00:29:31;84.41;-57.68;95.43;;
43385;Laerm;28988;48.042;7.584;2023-05-29T00:31:56;84.45;-57.68;95.35;;
43385;Laerm;28988;48.042;7.584;2023-05-29T00:34:22;84.47;-45.95;96.27;;
43385;Laerm;28988;48.042;7.584;2023-05-29T00:36:48;84.50;-41.73;95.99;;
43385;Laerm;28988;48.042;7.584;2023-05-29T00:39:13;84.47;-39.78;95.85;;
43385;Laerm;28988;48.042;7.584;2023-05-29T00:41:38;84.48;-33.11;95.79;;
43385;Laerm;28988;48.042;7.584;2023-05-29T00:44:04;84.53;-42.36;96.27;;
43385;Laerm;28988;48.042;7.584;2023-05-29T00:46:29;84.58;-41.37;98.10;;
43385;Laerm;28988;48.042;7.584;2023-05-29T00:48:55;84.55;-46.21;95.80;;
43385;Laerm;28988;48.042;7.584;2023-05-29T00:51:20;84.60;-39.78;95.53;;
43385;Laerm;28988;48.042;7.584;2023-05-29T00:53:46;84.62;-57.68;96.33;;
43385;Laerm;28988;48.042;7.584;2023-05-29T00:56:12;84.63;-29.68;95.76;;
43385;Laerm;28988;48.042;7.584;2023-05-29T00:58:38;84.63;-44.78;95.79;;
43385;Laerm;28988;48.042;7.584;2023-05-29T01:01:03;84.67;-47.04;96.25;;
43385;Laerm;28988;48.042;7.584;2023-05-29T01:03:28;84.63;-40.63;96.43;;
43385;Laerm;28988;48.042;7.584;2023-05-29T01:05:54;84.70;-57.68;97.47;;
43385;Laerm;28988;48.042;7.584;2023-05-29T01:08:19;84.72;-30.03;96.50;;
43385;Laerm;28988;48.042;7.584;2023-05-29T01:10:45;84.73;-45.36;96.11;;
43385;Laerm;28988;48.042;7.584;2023-05-29T01:13:16;84.81;-37.49;95.68;;
43385;Laerm;28988;48.042;7.584;2023-05-29T01:29:00;85.08;-33.55;96.10;;
43385;Laerm;28988;48.042;7.584;2023-05-29T01:31:26;85.25;-43.78;97.10;;
43385;Laerm;28988;48.042;7.584;2023-05-29T01:33:58;85.35;-35.53;96.96;;
43385;Laerm;28988;48.042;7.584;2023-05-29T01:36:24;85.44;-47.13;96.52;;
43385;Laerm;28988;48.042;7.584;2023-05-29T01:38:50;85.48;-38.78;96.51;;
43385;Laerm;28988;48.042;7.584;2023-05-29T01:41:16;85.62;-33.97;97.59;;
43385;Laerm;28988;48.042;7.584;2023-05-29T01:43:42;85.70;-27.57;96.52;;
43385;Laerm;28988;48.042;7.584;2023-05-29T01:46:08;85.75;-32.90;97.16;;
43385;Laerm;28988;48.042;7.584;2023-05-29T01:48:33;85.85;-29.28;96.65;;
43385;Laerm;28988;48.042;7.584;2023-05-29T01:50:58;86.02;-40.13;99.15;;
43385;Laerm;28988;48.042;7.584;2023-05-29T01:53:24;86.25;-19.37;98.43;;
43385;Laerm;28988;48.042;7.584;2023-05-29T01:55:49;86.28;-34.26;96.83;;
43385;Laerm;28988;48.042;7.584;2023-05-29T01:58:15;86.36;-36.58;96.77;;
43385;Laerm;28988;48.042;7.584;2023-05-29T02:00:41;86.52;-41.37;98.20;;
43385;Laerm;28988;48.042;7.584;2023-05-29T02:03:06;86.72;-37.90;100.47;;
43385;Laerm;28988;48.042;7.584;2023-05-29T02:05:32;86.67;-34.72;97.81;;
43385;Laerm;28988;48.042;7.584;2023-05-29T02:07:57;86.71;-34.90;99.77;;
43385;Laerm;28988;48.042;7.584;2023-05-29T02:10:22;86.68;-35.96;98.48;;
43385;Laerm;28988;48.042;7.584;2023-05-29T02:12:47;86.79;-25.66;99.38;;
43385;Laerm;28988;48.042;7.584;2023-05-29T02:15:13;86.88;-26.35;98.06;;
43385;Laerm;28988;48.042;7.584;2023-05-29T02:17:38;86.90;-21.93;97.20;;
43385;Laerm;28988;48.042;7.584;2023-05-29T02:20:03;87.03;-38.65;97.98;;
43385;Laerm;28988;48.042;7.584;2023-05-29T02:22:29;87.28;-22.07;99.25;;
43385;Laerm;28988;48.042;7.584;2023-05-29T02:24:54;87.44;-26.78;101.18;;
43385;Laerm;28988;48.042;7.584;2023-05-29T02:27:20;87.61;-35.03;99.56;;
43385;Laerm;28988;48.042;7.584;2023-05-29T02:29:45;87.69;-31.17;99.41;;
43385;Laerm;28988;48.042;7.584;2023-05-29T02:32:10;87.94;-15.22;99.55;;
43385;Laerm;28988;48.042;7.584;2023-05-29T02:34:36;87.94;-30.18;100.27;;
43385;Laerm;28988;48.042;7.584;2023-05-29T02:37:01;87.98;-23.77;100.46;;
43385;Laerm;28988;48.042;7.584;2023-05-29T02:39:26;88.15;-39.78;100.97;;
43385;Laerm;28988;48.042;7.584;2023-05-29T02:41:51;88.20;-41.88;99.67;;
43385;Laerm;28988;48.042;7.584;2023-05-29T02:44:16;88.37;-40.90;99.09;;
43385;Laerm;28988;48.042;7.584;2023-05-29T02:46:42;88.45;-22.55;98.64;;
43385;Laerm;28988;48.042;7.584;2023-05-29T02:49:07;88.42;-35.04;100.65;;
43385;Laerm;28988;48.042;7.584;2023-05-29T02:51:32;88.53;-39.05;100.49;;
43385;Laerm;28988;48.042;7.584;2023-05-29T02:53:57;88.57;-33.47;98.92;;
43385;Laerm;28988;48.042;7.584;2023-05-29T02:56:22;88.54;-19.37;99.16;;
43385;Laerm;28988;48.042;7.584;2023-05-29T02:58:50;88.70;-33.45;100.99;;
43385;Laerm;28988;48.042;7.584;2023-05-29T03:01:16;88.82;-37.06;101.98;;
43385;Laerm;28988;48.042;7.584;2023-05-29T03:03:41;89.04;-32.29;100.20;;
43385;Laerm;28988;48.042;7.584;2023-05-29T03:06:06;89.22;-41.26;100.26;;
43385;Laerm;28988;48.042;7.584;2023-05-29T03:08:34;89.34;-27.82;99.85;;
43385;Laerm;28988;48.042;7.584;2023-05-29T03:11:00;89.43;-18.45;100.93;;
43385;Laerm;28988;48.042;7.584;2023-05-29T03:13:25;89.66;-48.30;102.44;;
43385;Laerm;28988;48.042;7.584;2023-05-29T03:15:50;89.96;-55.49;101.41;;
43385;Laerm;28988;48.042;7.584;2023-05-29T03:18:16;90.07;-52.22;101.63;;
43385;Laerm;28988;48.042;7.584;2023-05-29T03:20:41;90.08;-31.82;102.43;;
43385;Laerm;28988;48.042;7.584;2023-05-29T03:23:06;90.24;-34.30;102.44;;
43385;Laerm;28988;48.042;7.584;2023-05-29T03:25:31;90.36;-41.98;101.33;;
43385;Laerm;28988;48.042;7.584;2023-05-29T03:27:56;90.30;-28.40;101.75;;
43385;Laerm;28988;48.042;7.584;2023-05-29T03:30:21;90.21;-30.95;101.02;;
43385;Laerm;28988;48.042;7.584;2023-05-29T03:32:47;90.25;-62.70;102.99;;
43385;Laerm;28988;48.042;7.584;2023-05-29T03:35:12;90.24;-37.45;101.55;;
43385;Laerm;28988;48.042;7.584;2023-05-29T03:37:37;90.23;-24.85;101.55;;
43385;Laerm;28988;48.042;7.584;2023-05-29T03:40:02;90.19;-21.57;101.06;;
43385;Laerm;28988;48.042;7.584;2023-05-29T03:42:29;90.28;-29.65;103.25;;
43385;Laerm;28988;48.042;7.584;2023-05-29T03:44:56;90.52;-54.34;102.34;;
43385;Laerm;28988;48.042;7.584;2023-05-29T03:47:21;90.58;-18.67;101.67;;
43385;Laerm;28988;48.042;7.584;2023-05-29T03:49:46;90.68;-26.39;102.16;;
43385;Laerm;28988;48.042;7.584;2023-05-29T03:52:11;90.74;-28.63;101.11;;
43385;Laerm;28988;48.042;7.584;2023-05-29T03:54:36;90.91;-18.19;103.61;;
43385;Laerm;28988;48.042;7.584;2023-05-29T03:57:02;90.89;-36.49;102.15;;
43385;Laerm;28988;48.042;7.584;2023-05-29T03:59:27;90.81;-14.26;101.54;;
43385;Laerm;28988;48.042;7.584;2023-05-29T04:01:52;90.88;-31.99;101.70;;
43385;Laerm;28988;48.042;7.584;2023-05-29T04:04:17;90.94;-22.13;102.56;;
43385;Laerm;28988;48.042;7.584;2023-05-29T04:06:42;90.89;-38.71;101.84;;
43385;Laerm;28988;48.042;7.584;2023-05-29T04:09:08;90.78;-27.41;102.00;;
43385;Laerm;28988;48.042;7.584;2023-05-29T04:11:33;90.86;-31.15;101.61;;
43385;Laerm;28988;48.042;7.584;2023-05-29T04:14:01;90.67;-31.16;102.23;;
43385;Laerm;28988;48.042;7.584;2023-05-29T04:16:27;90.88;-27.80;102.93;;
43385;Laerm;28988;48.042;7.584;2023-05-29T04:18:53;90.70;-32.51;101.69;;
43385;Laerm;28988;48.042;7.584;2023-05-29T04:21:18;90.64;-64.66;101.41;;
43385;Laerm;28988;48.042;7.584;2023-05-29T04:23:44;90.65;-20.69;103.11;;
43385;Laerm;28988;48.042;7.584;2023-05-29T04:26:09;90.76;-45.11;103.30;;
43385;Laerm;28988;48.042;7.584;2023-05-29T04:28:35;90.74;-28.96;101.66;;
43385;Laerm;28988;48.042;7.584;2023-05-29T04:31:02;90.67;-22.68;101.47;;
43385;Laerm;28988;48.042;7.584;2023-05-29T04:33:27;90.42;-27.18;101.79;;
43385;Laerm;28988;48.042;7.584;2023-05-29T04:35:54;90.52;-21.40;102.63;;
43385;Laerm;28988;48.042;7.584;2023-05-29T04:38:19;90.43;-21.00;101.44;;
43385;Laerm;28988;48.042;7.584;2023-05-29T04:40:49;90.33;-55.41;101.51;;
43385;Laerm;28988;48.042;7.584;2023-05-29T04:43:15;90.19;-30.20;101.65;;
43385;Laerm;28988;48.042;7.584;2023-05-29T04:45:40;90.09;-36.67;102.16;;
43385;Laerm;28988;48.042;7.584;2023-05-29T04:48:06;89.93;-15.54;101.24;;
43385;Laerm;28988;48.042;7.584;2023-05-29T04:50:33;89.83;-53.88;100.85;;
43385;Laerm;28988;48.042;7.584;2023-05-29T04:52:59;89.42;-28.42;100.37;;
43385;Laerm;28988;48.042;7.584;2023-05-29T04:55:24;88.99;-65.19;99.74;;
43385;Laerm;28988;48.042;7.584;2023-05-29T04:57:49;88.76;-46.17;102.04;;
43385;Laerm;28988;48.042;7.584;2023-05-29T05:00:15;88.31;-35.12;99.74;;
43385;Laerm;28988;48.042;7.584;2023-05-29T05:02:44;88.05;-30.95;98.70;;
43385;Laerm;28988;48.042;7.584;2023-05-29T05:05:09;87.84;-32.98;98.82;;
43385;Laerm;28988;48.042;7.584;2023-05-29T05:07:34;87.78;-34.96;100.93;;
43385;Laerm;28988;48.042;7.584;2023-05-29T05:10:00;87.64;-37.29;98.58;;
43385;Laerm;28988;48.042;7.584;2023-05-29T05:12:25;87.37;-30.20;98.13;;
43385;Laerm;28988;48.042;7.584;2023-05-29T05:14:50;87.13;-30.20;99.08;;
43385;Laerm;28988;48.042;7.584;2023-05-29T05:17:15;86.95;-26.13;99.45;;
43385;Laerm;28988;48.042;7.584;2023-05-29T05:19:41;86.80;-34.17;99.52;;
43385;Laerm;28988;48.042;7.584;2023-05-29T05:22:06;86.54;-25.17;97.28;;
43385;Laerm;28988;48.042;7.584;2023-05-29T05:24:31;86.35;-21.16;97.79;;
43385;Laerm;28988;48.042;7.584;2023-05-29T05:26:57;86.26;-51.87;97.62;;
43385;Laerm;28988;48.042;7.584;2023-05-29T05:29:22;86.20;-25.40;98.25;;
43385;Laerm;28988;48.042;7.584;2023-05-29T05:31:47;86.16;-41.42;99.36;;
43385;Laerm;28988;48.042;7.584;2023-05-29T05:34:12;85.91;-33.66;97.98;;
43385;Laerm;28988;48.042;7.584;2023-05-29T05:36:38;85.82;-30.09;97.44;;
43385;Laerm;28988;48.042;7.584;2023-05-29T05:39:03;85.79;-38.65;97.47;;
43385;Laerm;28988;48.042;7.584;2023-05-29T05:41:28;85.67;-51.68;97.27;;
43385;Laerm;28988;48.042;7.584;2023-05-29T05:43:53;85.57;-47.13;97.01;;
43385;Laerm;28988;48.042;7.584;2023-05-29T05:46:18;85.42;-42.70;96.23;;
43385;Laerm;28988;48.042;7.584;2023-05-29T05:48:43;85.31;-38.71;97.23;;
43385;Laerm;28988;48.042;7.584;2023-05-29T05:51:09;85.27;-35.38;98.25;;
43385;Laerm;28988;48.042;7.584;2023-05-29T05:53:36;85.15;-26.12;96.62;;
43385;Laerm;28988;48.042;7.584;2023-05-29T05:56:01;85.04;-51.96;96.54;;
43385;Laerm;28988;48.042;7.584;2023-05-29T05:58:26;84.98;-38.65;97.93;;
43385;Laerm;28988;48.042;7.584;2023-05-29T06:00:51;84.90;-44.07;96.48;;
43385;Laerm;28988;48.042;7.584;2023-05-29T06:03:17;84.84;-26.44;96.89;;
43385;Laerm;28988;48.042;7.584;2023-05-29T06:05:42;84.71;-50.10;95.77;;
43385;Laerm;28988;48.042;7.584;2023-05-29T06:08:07;84.60;-45.46;95.71;;
43385;Laerm;28988;48.042;7.584;2023-05-29T06:10:33;84.60;-43.27;96.23;;
43385;Laerm;28988;48.042;7.584;2023-05-29T06:12:58;84.56;-29.43;96.01;;
43385;Laerm;28988;48.042;7.584;2023-05-29T06:15:24;84.50;-41.88;96.11;;
43385;Laerm;28988;48.042;7.584;2023-05-29T06:17:49;84.47;-26.93;95.72;;
43385;Laerm;28988;48.042;7.584;2023-05-29T06:20:16;84.43;-57.68;96.06;;
43385;Laerm;28988;48.042;7.584;2023-05-29T06:22:41;84.45;-25.63;97.25;;
43385;Laerm;28988;48.042;7.584;2023-05-29T06:25:07;84.42;-53.91;96.00;;
43385;Laerm;28988;48.042;7.584;2023-05-29T06:27:32;84.37;-57.68;95.81;;
43385;Laerm;28988;48.042;7.584;2023-05-29T06:29:57;84.41;-28.29;95.84;;
43385;Laerm;28988;48.042;7.584;2023-05-29T06:32:22;84.40;-57.68;96.16;;
43385;Laerm;28988;48.042;7.584;2023-05-29T06:34:47;84.39;-28.29;96.04;;
43385;Laerm;28988;48.042;7.584;2023-05-29T06:37:13;84.37;-57.68;95.85;;
43385;Laerm;28988;48.042;7.584;2023-05-29T06:39:38;84.36;-39.78;95.91;;
43385;Laerm;28988;48.042;7.584;2023-05-29T06:42:06;84.35;-22.63;96.39;;
43385;Laerm;28988;48.042;7.584;2023-05-29T06:44:32;84.34;-23.73;95.29;;
43385;Laerm;28988;48.042;7.584;2023-05-29T06:46:57;84.36;-23.73;95.40;;
43385;Laerm;28988;48.042;7.584;2023-05-29T06:49:22;84.36;-57.68;95.53;;
43385;Laerm;28988;48.042;7.584;2023-05-29T06:51:47;84.34;-57.68;95.49;;
43385;Laerm;28988;48.042;7.584;2023-05-29T06:54:12;84.33;-57.68;95.43;;
43385;Laerm;28988;48.042;7.584;2023-05-29T06:56:38;84.33;-23.73;95.26;;
43385;Laerm;28988;48.042;7.584;2023-05-29T06:59:04;84.32;-47.13;95.58;;
43385;Laerm;28988;48.042;7.584;2023-05-29T07:01:29;84.32;-57.68;95.60;;
43385;Laerm;28988;48.042;7.584;2023-05-29T07:03:54;84.33;-23.77;95.50;;
43385;Laerm;28988;48.042;7.584;2023-05-29T07:06:19;84.32;-23.73;95.54;;
43385;Laerm;28988;48.042;7.584;2023-05-29T07:08:45;84.31;-57.68;95.98;;
43385;Laerm;28988;48.042;7.584;2023-05-29T07:11:10;84.30;-23.73;95.57;;
43385;Laerm;28988;48.042;7.584;2023-05-29T07:13:35;84.29;-23.73;94.94;;
43385;Laerm;28988;48.042;7.584;2023-05-29T07:16:00;84.30;-57.68;95.02;;
43385;Laerm;28988;48.042;7.584;2023-05-29T07:18:26;84.29;-23.73;95.35;;
43385;Laerm;28988;48.042;7.584;2023-05-29T07:20:51;84.31;-57.68;95.35;;
43385;Laerm;28988;48.042;7.584;2023-05-29T07:23:16;84.30;-57.68;95.02;;
43385;Laerm;28988;48.042;7.584;2023-05-29T07:25:41;84.29;-23.73;94.88;;
43385;Laerm;28988;48.042;7.584;2023-05-29T07:28:06;84.29;-57.68;95.54;;
43385;Laerm;28988;48.042;7.584;2023-05-29T07:30:31;84.26;-23.73;94.83;;
43385;Laerm;28988;48.042;7.584;2023-05-29T07:32:57;84.28;-57.68;94.84;;
43385;Laerm;28988;48.042;7.584;2023-05-29T07:35:22;84.29;-20.54;95.16;;
43385;Laerm;28988;48.042;7.584;2023-05-29T07:37:47;84.25;-50.62;94.45;;
43385;Laerm;28988;48.042;7.584;2023-05-29T07:40:14;84.27;-23.73;94.99;;
43385;Laerm;28988;48.042;7.584;2023-05-29T07:42:39;84.27;-22.63;94.67;;
43385;Laerm;28988;48.042;7.584;2023-05-29T07:45:05;84.25;-33.10;94.84;;
43385;Laerm;28988;48.042;7.584;2023-05-29T07:47:30;84.25;-25.08;94.55;;
43385;Laerm;28988;48.042;7.584;2023-05-29T07:49:55;84.24;-28.29;94.71;;
43385;Laerm;28988;48.042;7.584;2023-05-29T07:52:20;84.24;-57.68;94.29;;
43385;Laerm;28988;48.042;7.584;2023-05-29T07:54:46;84.22;-39.78;94.22;;
43385;Laerm;28988;48.042;7.584;2023-05-29T07:57:11;84.23;-57.68;94.65;;
43385;Laerm;28988;48.042;7.584;2023-05-29T07:59:36;84.21;-28.29;95.23;;
43385;Laerm;28988;48.042;7.584;2023-05-29T08:02:02;84.24;-23.73;94.54;;
43385;Laerm;28988;48.042;7.584;2023-05-29T08:04:28;84.22;-57.68;94.45;;
43385;Laerm;28988;48.042;7.584;2023-05-29T08:06:53;84.22;-28.29;94.26;;
43385;Laerm;28988;48.042;7.584;2023-05-29T08:09:19;84.22;-57.68;94.87;;
43385;Laerm;28988;48.042;7.584;2023-05-29T08:11:44;84.22;-57.68;94.79;;
43385;Laerm;28988;48.042;7.584;2023-05-29T08:14:11;84.20;-57.68;94.00;;
43385;Laerm;28988;48.042;7.584;2023-05-29T08:16:36;84.22;-33.10;94.70;;
43385;Laerm;28988;48.042;7.584;2023-05-29T08:19:02;84.21;-57.68;94.01;;
43385;Laerm;28988;48.042;7.584;2023-05-29T08:21:27;84.20;-23.73;93.84;;
43385;Laerm;28988;48.042;7.584;2023-05-29T08:23:52;84.20;-23.73;94.11;;
43385;Laerm;28988;48.042;7.584;2023-05-29T08:26:17;84.19;-57.68;93.82;;
43385;Laerm;28988;48.042;7.584;2023-05-29T08:28:43;84.20;-57.68;94.47;;
43385;Laerm;28988;48.042;7.584;2023-05-29T08:31:08;84.20;-28.29;93.96;;
43385;Laerm;28988;48.042;7.584;2023-05-29T08:33:33;84.19;-28.29;93.84;;
43385;Laerm;28988;48.042;7.584;2023-05-29T08:35:58;84.19;-57.68;94.34;;
43385;Laerm;28988;48.042;7.584;2023-05-29T08:38:23;84.19;-57.68;94.50;;
43385;Laerm;28988;48.042;7.584;2023-05-29T08:40:50;84.18;-57.68;93.83;;
43385;Laerm;28988;48.042;7.584;2023-05-29T08:43:17;84.19;-41.54;93.53;;
43385;Laerm;28988;48.042;7.584;2023-05-29T08:45:45;84.18;-57.68;94.32;;
43385;Laerm;28988;48.042;7.584;2023-05-29T08:48:10;84.18;-57.68;93.96;;
43385;Laerm;28988;48.042;7.584;2023-05-29T08:50:39;84.19;-57.68;94.45;;
43385;Laerm;28988;48.042;7.584;2023-05-29T08:53:08;84.16;-57.68;94.60;;
43385;Laerm;28988;48.042;7.584;2023-05-29T08:55:33;84.16;-28.29;93.70;;
43385;Laerm;28988;48.042;7.584;2023-05-29T08:57:58;84.17;-33.10;94.29;;
43385;Laerm;28988;48.042;7.584;2023-05-29T09:00:24;84.16;-28.29;94.00;;
43385;Laerm;28988;48.042;7.584;2023-05-29T09:02:53;84.15;-33.10;93.70;;
43385;Laerm;28988;48.042;7.584;2023-05-29T09:05:20;84.15;-57.68;93.31;;
43385;Laerm;28988;48.042;7.584;2023-05-29T09:07:46;84.15;-23.73;93.24;;
43385;Laerm;28988;48.042;7.584;2023-05-29T09:10:12;84.14;-57.68;93.70;;
43385;Laerm;28988;48.042;7.584;2023-05-29T09:12:38;84.15;-57.68;94.11;;
43385;Laerm;28988;48.042;7.584;2023-05-29T09:15:08;84.13;-34.16;93.17;;
43385;Laerm;28988;48.042;7.584;2023-05-29T09:17:41;84.14;-33.10;93.28;;
43385;Laerm;28988;48.042;7.584;2023-05-29T09:20:14;84.14;-22.68;93.12;;
43385;Laerm;28988;48.042;7.584;2023-05-29T09:22:41;84.13;-33.10;93.52;;
43385;Laerm;28988;48.042;7.584;2023-05-29T09:25:07;84.15;-29.01;92.83;;
43385;Laerm;28988;48.042;7.584;2023-05-29T09:27:38;84.14;-57.68;93.18;;
43385;Laerm;28988;48.042;7.584;2023-05-29T09:30:04;84.16;-41.66;93.45;;
43385;Laerm;28988;48.042;7.584;2023-05-29T09:32:31;84.15;-49.91;93.01;;
43385;Laerm;28988;48.042;7.584;2023-05-29T09:34:59;84.18;-49.01;93.13;;
43385;Laerm;28988;48.042;7.584;2023-05-29T09:37:25;84.21;-37.68;93.39;;
43385;Laerm;28988;48.042;7.584;2023-05-29T09:39:50;84.24;-45.45;93.37;;
43385;Laerm;28988;48.042;7.584;2023-05-29T09:42:18;84.25;-31.14;93.81;;
43385;Laerm;28988;48.042;7.584;2023-05-29T09:44:45;84.27;-46.30;93.28;;
43385;Laerm;28988;48.042;7.584;2023-05-29T09:47:14;84.28;-36.53;93.41;;
43385;Laerm;28988;48.042;7.584;2023-05-29T09:49:41;84.38;-33.89;93.99;;
43385;Laerm;28988;48.042;7.584;2023-05-29T09:52:06;84.48;-49.17;93.77;;
43385;Laerm;28988;48.042;7.584;2023-05-29T09:54:34;84.52;-49.64;93.76;;
43385;Laerm;28988;48.042;7.584;2023-05-29T09:57:01;84.53;-32.37;94.11;;
43385;Laerm;28988;48.042;7.584;2023-05-29T09:59:29;84.73;-33.99;94.08;;
43385;Laerm;28988;48.042;7.584;2023-05-29T10:02:02;84.74;-54.18;94.03;;
43385;Laerm;28988;48.042;7.584;2023-05-29T10:04:33;85.04;-33.58;94.48;;
43385;Laerm;28988;48.042;7.584;2023-05-29T10:06:59;85.15;-27.53;94.72;;
43385;Laerm;28988;48.042;7.584;2023-05-29T10:09:27;85.41;-42.25;95.45;;
43385;Laerm;28988;48.042;7.584;2023-05-29T10:11:53;86.48;-41.35;94.65;;
43385;Laerm;28988;48.042;7.584;2023-05-29T10:14:20;88.36;-34.82;95.21;;
43385;Laerm;28988;48.042;7.584;2023-05-29T10:16:48;91.43;-24.94;97.95;;
43385;Laerm;28988;48.042;7.584;2023-05-29T10:19:17;94.36;-25.86;98.69;;
43385;Laerm;28988;48.042;7.584;2023-05-29T10:21:43;94.89;-35.44;98.93;;
43385;Laerm;28988;48.042;7.584;2023-05-29T10:24:09;95.19;-20.55;99.43;;
43385;Laerm;28988;48.042;7.584;2023-05-29T10:26:36;94.38;-17.49;99.80;;
43385;Laerm;28988;48.042;7.584;2023-05-29T10:34:39;83.30;-35.15;94.47;;
43385;Laerm;28988;48.042;7.584;2023-05-29T10:37:09;83.54;-41.84;94.60;;
43385;Laerm;28988;48.042;7.584;2023-05-29T10:39:39;84.32;-50.44;95.18;;
43385;Laerm;28988;48.042;7.584;2023-05-29T10:42:18;84.25;-64.45;95.96;;
43385;Laerm;28988;48.042;7.584;2023-05-29T10:44:50;84.63;-55.14;95.14;;
43385;Laerm;28988;48.042;7.584;2023-05-29T10:47:22;83.11;-35.36;93.84;;
43385;Laerm;28988;48.042;7.584;2023-05-29T10:49:50;82.20;-27.41;93.01;;
43385;Laerm;28988;48.042;7.584;2023-05-29T10:52:18;82.88;-32.79;94.14;;
43385;Laerm;28988;48.042;7.584;2023-05-29T10:54:49;83.29;-35.87;94.93;;
43385;Laerm;28988;48.042;7.584;2023-05-29T10:57:15;82.73;-49.67;93.99;;
43385;Laerm;28988;48.042;7.584;2023-05-29T10:59:41;82.30;-58.71;94.28;;
43385;Laerm;28988;48.042;7.584;2023-05-29T11:02:06;82.74;-40.53;94.74;;
43385;Laerm;28988;48.042;7.584;2023-05-29T11:04:31;82.68;-54.36;93.85;;
43385;Laerm;28988;48.042;7.584;2023-05-29T11:06:57;81.90;-34.45;92.47;;
43385;Laerm;28988;48.042;7.584;2023-05-29T11:09:35;81.55;-37.19;92.62;;
43385;Laerm;28988;48.042;7.584;2023-05-29T11:15:06;81.08;-43.76;92.29;;
43385;Laerm;28988;48.042;7.584;2023-05-29T11:20:03;80.43;-39.71;90.37;;
43385;Laerm;28988;48.042;7.584;2023-05-29T11:23:00;80.95;-49.03;91.39;;
43385;Laerm;28988;48.042;7.584;2023-05-29T11:25:16;80.90;-37.02;92.95;;
43385;Laerm;28988;48.042;7.584;2023-05-29T11:27:44;80.73;-80.19;91.68;;
43385;Laerm;28988;48.042;7.584;2023-05-29T11:30:10;80.35;-48.24;90.44;;
43385;Laerm;28988;48.042;7.584;2023-05-29T11:32:36;80.00;-41.07;90.34;;
43385;Laerm;28988;48.042;7.584;2023-05-29T11:35:07;79.75;-50.17;91.09;;
43385;Laerm;28988;48.042;7.584;2023-05-29T11:37:32;79.87;-31.50;91.27;;
43385;Laerm;28988;48.042;7.584;2023-05-29T11:39:57;79.71;-50.47;90.19;;
43385;Laerm;28988;48.042;7.584;2023-05-29T11:42:22;79.47;-31.29;90.63;;
43385;Laerm;28988;48.042;7.584;2023-05-29T11:44:48;79.52;-41.09;89.90;;
43385;Laerm;28988;48.042;7.584;2023-05-29T11:47:13;79.37;-54.27;89.39;;
43385;Laerm;28988;48.042;7.584;2023-05-29T11:49:40;79.33;-35.17;89.68;;
43385;Laerm;28988;48.042;7.584;2023-05-29T11:52:08;79.46;-43.65;90.19;;
43385;Laerm;28988;48.042;7.584;2023-05-29T11:54:34;79.47;-48.07;90.39;;
43385;Laerm;28988;48.042;7.584;2023-05-29T11:57:00;79.40;-53.62;90.88;;
43385;Laerm;28988;48.042;7.584;2023-05-29T11:59:27;79.11;-51.73;89.76;;
43385;Laerm;28988;48.042;7.584;2023-05-29T12:01:53;78.84;-39.32;90.19;;
43385;Laerm;28988;48.042;7.584;2023-05-29T12:04:18;78.75;-50.99;90.09;;
43385;Laerm;28988;48.042;7.584;2023-05-29T12:06:43;78.50;-44.43;88.40;;
43385;Laerm;28988;48.042;7.584;2023-05-29T12:09:09;78.44;-39.88;88.75;;
43385;Laerm;28988;48.042;7.584;2023-05-29T12:11:34;78.42;-52.37;89.44;;
43385;Laerm;28988;48.042;7.584;2023-05-29T12:14:00;78.44;-47.88;89.50;;
43385;Laerm;28988;48.042;7.584;2023-05-29T12:16:26;78.47;-41.90;88.67;;
43385;Laerm;28988;48.042;7.584;2023-05-29T12:18:53;78.62;-37.85;88.69;;
43385;Laerm;28988;48.042;7.584;2023-05-29T12:21:19;78.48;-50.71;88.98;;
43385;Laerm;28988;48.042;7.584;2023-05-29T12:23:45;78.37;-50.99;88.91;;
43385;Laerm;28988;48.042;7.584;2023-05-29T12:26:10;78.39;-30.60;88.49;;
43385;Laerm;28988;48.042;7.584;2023-05-29T12:28:35;78.42;-42.49;88.70;;
43385;Laerm;28988;48.042;7.584;2023-05-29T12:31:00;78.49;-50.99;88.85;;
43385;Laerm;28988;48.042;7.584;2023-05-29T12:33:27;78.51;-50.17;89.61;;
43385;Laerm;28988;48.042;7.584;2023-05-29T12:35:53;78.45;-50.99;89.09;;
43385;Laerm;28988;48.042;7.584;2023-05-29T12:38:18;78.32;-73.34;88.85;;
43385;Laerm;28988;48.042;7.584;2023-05-29T12:40:47;78.29;-50.17;88.62;;
43385;Laerm;28988;48.042;7.584;2023-05-29T12:43:13;78.26;-43.22;88.62;;
43385;Laerm;28988;48.042;7.584;2023-05-29T12:45:38;78.28;-50.99;88.74;;
43385;Laerm;28988;48.042;7.584;2023-05-29T12:48:04;78.28;-50.99;88.58;;
43385;Laerm;28988;48.042;7.584;2023-05-29T12:50:40;78.27;-47.89;88.83;;
43385;Laerm;28988;48.042;7.584;2023-05-29T12:53:15;78.29;-50.99;89.22;;
43385;Laerm;28988;48.042;7.584;2023-05-29T12:55:41;78.28;-50.99;88.63;;
43385;Laerm;28988;48.042;7.584;2023-05-29T12:58:08;78.30;-45.05;89.35;;
43385;Laerm;28988;48.042;7.584;2023-05-29T13:00:33;78.33;-45.05;88.59;;
43385;Laerm;28988;48.042;7.584;2023-05-29T13:02:59;78.37;-53.43;89.25;;
43385;Laerm;28988;48.042;7.584;2023-05-29T13:05:26;78.37;-50.17;88.80;;
43385;Laerm;28988;48.042;7.584;2023-05-29T13:07:51;78.29;-50.17;88.74;;
43385;Laerm;28988;48.042;7.584;2023-05-29T13:10:17;78.30;-45.05;88.68;;
43385;Laerm;28988;48.042;7.584;2023-05-29T13:12:42;78.28;-50.99;88.65;;
43385;Laerm;28988;48.042;7.584;2023-05-29T13:15:09;78.28;-50.99;88.48;;
43385;Laerm;28988;48.042;7.584;2023-05-29T13:17:34;78.29;-58.24;88.68;;
43385;Laerm;28988;48.042;7.584;2023-05-29T13:20:00;78.26;-50.99;88.92;;
43385;Laerm;28988;48.042;7.584;2023-05-29T13:22:25;78.29;-50.17;89.03;;
43385;Laerm;28988;48.042;7.584;2023-05-29T13:24:55;78.32;-51.82;88.53;;
43385;Laerm;28988;48.042;7.584;2023-05-29T13:27:20;78.35;-63.30;89.31;;
43385;Laerm;28988;48.042;7.584;2023-05-29T13:29:45;78.31;-35.46;88.86;;
43385;Laerm;28988;48.042;7.584;2023-05-29T13:32:11;78.30;-50.99;88.81;;
43385;Laerm;28988;48.042;7.584;2023-05-29T13:34:36;78.33;-50.99;89.47;;
43385;Laerm;28988;48.042;7.584;2023-05-29T13:37:01;78.37;-50.99;88.74;;
43385;Laerm;28988;48.042;7.584;2023-05-29T13:39:27;78.37;-50.99;89.00;;
43385;Laerm;28988;48.042;7.584;2023-05-29T13:41:52;78.28;-50.99;88.06;;
43385;Laerm;28988;48.042;7.584;2023-05-29T13:44:18;78.28;-50.99;88.69;;
43385;Laerm;28988;48.042;7.584;2023-05-29T13:46:43;78.24;-54.27;88.62;;
43385;Laerm;28988;48.042;7.584;2023-05-29T13:49:09;78.23;-50.99;88.34;;